Time;durP1;ratioP1;P1;durP2;ratioP2;P2;SDS_P1;SDS_P2;PMS_P1;PMS_P2;Temp;Humidity;BMP_temperature;BMP_pressure;BME280_temperature;BME280_humidity;BME280_pressure;Samples;Min_cycle;Max_cycle;Signal;HPM_P1;HPM_P2
2022/04/16 00:01:33;;;;;;;3.47;2.70;;;;;;;-143.37;100.00;62585.38;5066692;28;20454;-75
2022/04/16 00:04:10;;;;;;;3.17;2.77;;;;;;;-143.37;100.00;62585.38;5066941;28;20433;-76
2022/04/16 00:06:46;;;;;;;3.63;2.50;;;;;;;-143.37;100.00;62585.38;5047480;28;20446;-75
2022/04/16 00:09:21;;;;;;;3.27;2.80;;;;;;;-143.37;100.00;62585.38;5050536;28;20481;-75
2022/04/16 00:11:57;;;;;;;3.03;2.73;;;;;;;-143.37;100.00;62585.38;5067343;28;20430;-76
2022/04/16 00:14:34;;;;;;;3.00;2.67;;;;;;;-143.37;100.00;62585.38;5065023;28;20429;-75
2022/04/16 00:17:10;;;;;;;2.70;2.40;;;;;;;-143.37;100.00;62585.38;5048365;28;20438;-76
2022/04/16 00:19:47;;;;;;;3.10;2.60;;;;;;;-143.37;100.00;62585.38;5069978;28;20518;-75
2022/04/16 00:22:23;;;;;;;2.90;2.40;;;;;;;-143.37;100.00;62585.38;5067786;28;20445;-76
2022/04/16 00:25:00;;;;;;;3.23;2.93;;;;;;;-143.37;100.00;62585.38;5069552;28;20461;-75
2022/04/16 00:27:39;;;;;;;3.00;2.47;;;;;;;-143.37;100.00;62585.38;5064407;28;20430;-75
2022/04/16 00:30:17;;;;;;;2.50;2.20;;;;;;;-143.37;100.00;62585.38;5044198;28;20864;-75
2022/04/16 00:32:55;;;;;;;2.83;2.17;;;;;;;-143.37;100.00;62585.38;5063380;28;20434;-75
2022/04/16 00:35:32;;;;;;;2.90;2.10;;;;;;;-143.37;100.00;62585.38;5068139;28;20446;-75
2022/04/16 00:38:08;;;;;;;2.53;2.10;;;;;;;-143.37;100.00;62585.38;5065974;28;20437;-75
2022/04/16 00:40:44;;;;;;;2.53;2.27;;;;;;;-143.37;100.00;62585.38;5065453;28;20434;-75
2022/04/16 00:43:24;;;;;;;2.23;2.03;;;;;;;-143.37;100.00;62585.38;5064307;28;20469;-75
2022/04/16 00:46:02;;;;;;;2.80;2.50;;;;;;;-143.37;100.00;62585.38;5067787;28;20845;-75
2022/04/16 00:48:37;;;;;;;2.40;2.20;;;;;;;-143.37;100.00;62585.38;5065452;28;20450;-75
2022/04/16 00:51:16;;;;;;;3.13;2.70;;;;;;;-143.37;100.00;62585.38;5066736;28;20499;-75
2022/04/16 00:53:51;;;;;;;4.53;2.47;;;;;;;-143.37;100.00;62585.38;5067023;28;20551;-75
2022/04/16 00:56:27;;;;;;;3.00;2.70;;;;;;;-143.37;100.00;62585.38;5065486;28;20544;-75
2022/04/16 00:59:04;;;;;;;3.47;2.30;;;;;;;-143.37;100.00;62585.38;5066962;28;20430;-75
2022/04/16 01:01:39;;;;;;;2.90;2.50;;;;;;;-143.37;100.00;62585.38;5064054;28;20469;-75
2022/04/16 01:04:15;;;;;;;3.10;2.80;;;;;;;-143.37;100.00;62585.38;5066423;28;20529;-75
2022/04/16 01:06:52;;;;;;;4.10;2.57;;;;;;;-143.37;100.00;62585.38;5062552;28;20431;-75
2022/04/16 01:09:29;;;;;;;3.23;2.63;;;;;;;-143.37;100.00;62585.38;5061904;28;20470;-75
2022/04/16 01:12:08;;;;;;;3.00;2.33;;;;;;;-143.37;100.00;62585.38;5067345;28;20434;-75
2022/04/16 01:14:45;;;;;;;4.17;2.93;;;;;;;-143.37;100.00;62585.38;5057411;28;20454;-75
2022/04/16 01:17:34;;;;;;;2.70;2.33;;;;;;;-143.37;100.00;62585.38;5060985;28;20430;-75
2022/04/16 01:20:10;;;;;;;2.90;2.60;;;;;;;-143.37;100.00;62585.38;5062552;28;20921;-75
2022/04/16 01:22:48;;;;;;;3.30;2.70;;;;;;;-143.37;100.00;62585.38;5039073;28;20537;-75
2022/04/16 01:25:25;;;;;;;4.03;2.83;;;;;;;-143.37;100.00;62585.38;5064257;28;20537;-76
2022/04/16 01:28:01;;;;;;;2.63;2.43;;;;;;;-143.37;100.00;62585.38;5065953;28;20438;-74
2022/04/16 01:30:37;;;;;;;2.47;2.23;;;;;;;-143.37;100.00;62585.38;5061816;28;20513;-75
2022/04/16 01:33:13;;;;;;;2.67;2.40;;;;;;;-143.37;100.00;62585.38;5054374;28;20462;-75
2022/04/16 01:35:53;;;;;;;3.17;2.53;;;;;;;-143.37;100.00;62585.38;5061874;28;20447;-76
2022/04/16 01:38:30;;;;;;;3.20;2.30;;;;;;;-143.37;100.00;62585.38;5051160;28;20488;-76
2022/04/16 01:41:05;;;;;;;3.90;2.30;;;;;;;-143.37;100.00;62585.38;5042426;28;20453;-75
2022/04/16 01:43:42;;;;;;;2.97;2.53;;;;;;;-143.37;100.00;62585.38;5055214;28;20439;-76
2022/04/16 01:46:18;;;;;;;2.80;2.50;;;;;;;-143.37;100.00;62585.38;5060871;28;20545;-75
2022/04/16 01:48:53;;;;;;;3.57;2.80;;;;;;;-143.37;100.00;62585.38;5059249;28;20442;-76
2022/04/16 01:51:29;;;;;;;2.70;2.40;;;;;;;-143.37;100.00;62585.38;5073225;28;21010;-75
2022/04/16 01:54:08;;;;;;;4.17;2.90;;;;;;;-143.37;100.00;62585.38;5038287;28;20944;-76
2022/04/16 01:56:44;;;;;;;3.80;3.10;;;;;;;-143.37;100.00;62585.38;5053979;28;20443;-75
2022/04/16 01:59:19;;;;;;;2.93;2.67;;;;;;;-143.37;100.00;62585.38;5054828;28;20797;-75
2022/04/16 02:01:56;;;;;;;3.17;2.53;;;;;;;-143.37;100.00;62585.38;5053983;28;20556;-75
2022/04/16 02:04:32;;;;;;;3.47;2.80;;;;;;;-143.37;100.00;62585.38;5036899;28;20943;-75
2022/04/16 02:07:08;;;;;;;3.13;2.83;;;;;;;-143.37;100.00;62585.38;5028812;28;20471;-75
2022/04/16 02:09:45;;;;;;;3.27;2.80;;;;;;;-143.37;100.00;62585.38;5035786;28;20843;-75
2022/04/16 02:12:22;;;;;;;2.80;2.60;;;;;;;-143.37;100.00;62585.38;5034836;28;20450;-75
2022/04/16 02:14:58;;;;;;;3.23;2.80;;;;;;;-143.37;100.00;62585.38;5048791;28;20446;-75
2022/04/16 02:17:33;;;;;;;3.07;2.83;;;;;;;-143.37;100.00;62585.38;5050512;28;21225;-75
2022/04/16 02:20:10;;;;;;;3.23;2.90;;;;;;;-143.37;100.00;62585.38;5039031;28;20441;-75
2022/04/16 02:22:48;;;;;;;2.53;2.20;;;;;;;-143.37;100.00;62585.38;5043112;28;20442;-75
2022/04/16 02:25:25;;;;;;;5.10;2.63;;;;;;;-143.37;100.00;62585.38;5057649;28;20447;-76
2022/04/16 02:28:00;;;;;;;3.40;2.90;;;;;;;-143.37;100.00;62585.38;5059878;28;20481;-75
2022/04/16 02:30:36;;;;;;;3.57;3.03;;;;;;;-143.37;100.00;62585.38;5040673;28;20564;-76
2022/04/16 02:33:12;;;;;;;2.90;2.60;;;;;;;-143.37;100.00;62585.38;5040815;28;20944;-76
2022/04/16 02:35:48;;;;;;;3.20;2.83;;;;;;;-143.37;100.00;62585.38;5048511;28;20467;-76
2022/04/16 02:38:24;;;;;;;3.00;2.60;;;;;;;-143.37;100.00;62585.38;5055807;28;20442;-75
2022/04/16 02:41:01;;;;;;;2.93;2.63;;;;;;;-143.37;100.00;62585.38;5025948;28;20792;-76
2022/04/16 02:43:38;;;;;;;2.93;2.30;;;;;;;-143.37;100.00;62585.38;5054957;28;20897;-75
2022/04/16 02:49:07;;;;;;;3.10;2.80;;;;;;;-143.37;100.00;62585.38;5057852;28;20818;-75
2022/04/16 02:51:43;;;;;;;3.30;3.00;;;;;;;-143.37;100.00;62585.38;5045308;28;20454;-75
2022/04/16 02:54:19;;;;;;;3.20;2.90;;;;;;;-143.37;100.00;62585.38;5061553;28;20512;-75
2022/04/16 02:56:56;;;;;;;3.87;3.20;;;;;;;-143.37;100.00;62585.38;5048173;28;20540;-76
2022/04/16 02:59:35;;;;;;;3.67;3.00;;;;;;;-143.37;100.00;62585.38;5061613;28;20442;-76
2022/04/16 03:02:11;;;;;;;3.20;2.70;;;;;;;-143.37;100.00;62585.38;5041627;28;20878;-76
2022/04/16 03:04:49;;;;;;;3.03;2.70;;;;;;;-143.37;100.00;62585.38;5050617;28;20858;-76
2022/04/16 03:07:25;;;;;;;3.83;2.47;;;;;;;-143.37;100.00;62585.38;5056242;28;20519;-75
2022/04/16 03:10:02;;;;;;;3.00;2.70;;;;;;;-143.37;100.00;62585.38;5071384;28;20473;-75
2022/04/16 03:12:46;;;;;;;3.33;2.80;;;;;;;-143.37;100.00;62585.38;5066619;28;20532;-75
2022/04/16 03:18:16;;;;;;;3.87;3.23;;;;;;;-143.37;100.00;62585.38;5065366;28;20946;-75
2022/04/16 03:20:51;;;;;;;3.67;3.17;;;;;;;-143.37;100.00;62585.38;5063159;28;20544;-75
2022/04/16 03:23:27;;;;;;;3.30;2.63;;;;;;;-143.37;100.00;62585.38;5064822;28;20437;-75
2022/04/16 03:26:02;;;;;;;5.20;3.17;;;;;;;-143.37;100.00;62585.38;5069912;28;20482;-75
2022/04/16 03:28:41;;;;;;;3.03;2.73;;;;;;;-143.37;100.00;62585.38;5056986;28;20787;-75
2022/04/16 03:31:17;;;;;;;4.20;3.03;;;;;;;-143.37;100.00;62585.38;5068970;28;20952;-76
2022/04/16 03:33:52;;;;;;;5.40;3.60;;;;;;;-143.37;100.00;62585.38;5055686;28;20437;-76
2022/04/16 03:36:28;;;;;;;3.30;3.00;;;;;;;-143.37;100.00;62585.38;5066318;28;20445;-76
2022/04/16 03:39:04;;;;;;;3.90;2.53;;;;;;;-143.37;100.00;62585.38;5068111;28;20445;-75
2022/04/16 03:41:39;;;;;;;4.10;3.47;;;;;;;-143.37;100.00;62585.38;5078293;28;20541;-75
2022/04/16 03:44:16;;;;;;;3.30;2.80;;;;;;;-143.37;100.00;62585.38;5068776;28;20521;-75
2022/04/16 03:46:52;;;;;;;4.40;3.00;;;;;;;-143.37;100.00;62585.38;5065391;28;20445;-75
2022/04/16 03:49:28;;;;;;;3.67;3.27;;;;;;;-143.37;100.00;62585.38;5058616;28;20441;-75
2022/04/16 03:52:03;;;;;;;4.10;3.50;;;;;;;-143.37;100.00;62585.38;5047934;28;20954;-74
2022/04/16 04:00:27;;;;;;;5.07;3.63;;;;;;;-143.37;100.00;62585.38;5066435;28;20435;-74
2022/04/16 04:03:03;;;;;;;3.90;3.20;;;;;;;-143.37;100.00;62585.38;5050118;28;20583;-75
2022/04/16 04:05:40;;;;;;;3.40;2.90;;;;;;;-143.37;100.00;62585.38;5067531;28;20446;-75
2022/04/16 04:08:16;;;;;;;3.60;2.90;;;;;;;-143.37;100.00;62585.38;5052507;28;20451;-75
2022/04/16 04:10:51;;;;;;;3.87;3.30;;;;;;;-143.37;100.00;62585.38;5055478;28;20478;-75
2022/04/16 04:13:27;;;;;;;3.63;3.33;;;;;;;-143.37;100.00;62585.38;5062082;28;20450;-75
2022/04/16 04:16:04;;;;;;;4.03;3.37;;;;;;;-143.37;100.00;62585.38;5058571;28;20457;-74
2022/04/16 04:18:40;;;;;;;4.57;3.90;;;;;;;-143.37;100.00;62585.38;5066357;28;20800;-76
2022/04/16 04:21:16;;;;;;;3.93;3.40;;;;;;;-143.37;100.00;62585.38;5066738;28;20770;-75
2022/04/16 04:23:51;;;;;;;3.63;3.20;;;;;;;-143.37;100.00;62585.38;5067012;28;20450;-75
2022/04/16 04:26:27;;;;;;;5.63;3.47;;;;;;;-143.37;100.00;62585.38;5065000;28;20460;-75
2022/04/16 04:29:02;;;;;;;3.03;2.73;;;;;;;-143.37;100.00;62585.38;5065592;28;20445;-75
2022/04/16 04:31:41;;;;;;;4.60;3.70;;;;;;;-143.37;100.00;62585.38;5063062;28;20694;-75
2022/04/16 04:34:16;;;;;;;4.40;3.53;;;;;;;-143.37;100.00;62585.38;5048521;28;20442;-76
2022/04/16 04:36:52;;;;;;;3.97;3.57;;;;;;;-143.37;100.00;62585.38;5054340;28;20447;-74
2022/04/16 04:39:28;;;;;;;4.60;3.63;;;;;;;-143.37;100.00;62585.38;5056130;28;20531;-75
2022/04/16 04:42:03;;;;;;;4.20;3.50;;;;;;;-143.37;100.00;62585.38;5064342;28;20800;-75
2022/04/16 04:44:39;;;;;;;3.60;3.13;;;;;;;-143.37;100.00;62585.38;5061551;28;20446;-76
2022/04/16 04:47:16;;;;;;;3.80;3.40;;;;;;;-143.37;100.00;62585.38;5046471;28;20442;-75
2022/04/16 04:49:51;;;;;;;4.00;3.60;;;;;;;-143.37;100.00;62585.38;5054066;28;20478;-75
2022/04/16 04:52:29;;;;;;;4.03;3.60;;;;;;;-143.37;100.00;62585.38;5064463;28;20450;-75
2022/04/16 04:55:09;;;;;;;3.70;3.10;;;;;;;-143.37;100.00;62585.38;5063845;28;20434;-75
2022/04/16 04:57:44;;;;;;;4.13;3.30;;;;;;;-143.37;100.00;62585.38;5053986;28;20433;-74
2022/04/16 05:00:20;;;;;;;4.27;3.60;;;;;;;-143.37;100.00;62585.38;5047796;28;20446;-75
2022/04/16 05:02:57;;;;;;;3.87;3.40;;;;;;;-143.37;100.00;62585.38;5052635;28;20963;-75
2022/04/16 05:05:32;;;;;;;4.77;3.83;;;;;;;-143.37;100.00;62585.38;5064735;28;20450;-75
2022/04/16 05:08:08;;;;;;;4.83;4.07;;;;;;;-143.37;100.00;62585.38;5063845;28;20719;-75
2022/04/16 05:10:44;;;;;;;4.63;3.90;;;;;;;-143.37;100.00;62585.38;5067299;28;20523;-75
2022/04/16 05:13:20;;;;;;;5.23;3.90;;;;;;;-143.37;100.00;62585.38;5066367;28;20434;-75
2022/04/16 05:15:56;;;;;;;5.87;4.20;;;;;;;-143.37;100.00;62585.38;5064915;28;20513;-75
2022/04/16 05:18:33;;;;;;;5.90;4.47;;;;;;;-143.37;100.00;62585.38;5049470;28;20441;-75
2022/04/16 05:21:08;;;;;;;6.37;4.00;;;;;;;-143.37;100.00;62585.38;5047695;28;20472;-75
2022/04/16 05:23:44;;;;;;;4.97;4.50;;;;;;;-143.37;100.00;62585.38;5059518;28;20446;-76
2022/04/16 05:26:20;;;;;;;5.03;3.47;;;;;;;-143.37;100.00;62585.38;5066631;28;20449;-76
2022/04/16 05:28:56;;;;;;;4.80;4.40;;;;;;;-143.37;100.00;62585.38;5057940;28;20445;-76
2022/04/16 05:31:32;;;;;;;4.87;4.07;;;;;;;-143.37;100.00;62585.38;5069480;28;20466;-76
2022/04/16 05:34:22;;;;;;;4.90;4.27;;;;;;;-143.37;100.00;62585.38;5069567;28;20548;-75
2022/04/16 05:36:58;;;;;;;4.27;3.37;;;;;;;-143.37;100.00;62585.38;5063698;28;20439;-76
2022/04/16 05:39:33;;;;;;;4.50;4.10;;;;;;;-143.37;100.00;62585.38;5046374;28;20947;-74
2022/04/16 05:42:09;;;;;;;5.60;3.33;;;;;;;-143.37;100.00;62585.38;5046608;28;20434;-75
2022/04/16 05:44:45;;;;;;;4.47;3.67;;;;;;;-143.37;100.00;62585.38;5065922;28;20829;-76
2022/04/16 05:47:20;;;;;;;4.90;3.90;;;;;;;-143.37;100.00;62585.38;5066801;28;20433;-75
2022/04/16 05:49:58;;;;;;;4.30;3.60;;;;;;;-143.37;100.00;62585.38;5064914;28;20469;-75
2022/04/16 05:52:38;;;;;;;5.07;4.57;;;;;;;-143.37;100.00;62585.38;5055483;28;20465;-75
2022/04/16 05:55:14;;;;;;;3.70;3.37;;;;;;;-143.37;100.00;62585.38;5072084;28;20441;-75
2022/04/16 05:57:49;;;;;;;5.60;4.77;;;;;;;-143.37;100.00;62585.38;5065270;28;20449;-75
2022/04/16 06:00:25;;;;;;;4.43;4.00;;;;;;;-143.37;100.00;62585.38;5059365;28;20441;-75
2022/04/16 06:03:01;;;;;;;4.67;4.00;;;;;;;-143.37;100.00;62585.38;5068144;28;20830;-75
2022/04/16 06:05:40;;;;;;;4.50;3.63;;;;;;;-143.37;100.00;62585.38;5061505;28;20438;-75
2022/04/16 06:08:15;;;;;;;4.17;3.53;;;;;;;-143.37;100.00;62585.38;5060341;28;20454;-74
2022/04/16 06:10:51;;;;;;;4.17;3.73;;;;;;;-143.37;100.00;62585.38;5062852;28;20477;-75
2022/04/16 06:13:26;;;;;;;5.17;4.60;;;;;;;-143.37;100.00;62585.38;5079122;28;20438;-75
2022/04/16 06:16:02;;;;;;;4.40;3.70;;;;;;;-143.37;100.00;62585.38;5065197;28;20468;-74
2022/04/16 06:18:38;;;;;;;4.27;3.63;;;;;;;-143.37;100.00;62585.38;5066766;28;20437;-75
2022/04/16 06:21:16;;;;;;;4.33;3.93;;;;;;;-143.37;100.00;62585.38;5080507;28;20435;-76
2022/04/16 06:24:00;;;;;;;4.87;4.00;;;;;;;-143.37;100.00;62585.38;5066982;28;20764;-75
2022/04/16 06:26:38;;;;;;;5.90;4.13;;;;;;;-143.37;100.00;62585.38;5066628;28;20939;-76
2022/04/16 06:29:14;;;;;;;6.20;4.10;;;;;;;-143.37;100.00;62585.38;5053522;28;20449;-75
2022/04/16 06:31:49;;;;;;;4.67;3.70;;;;;;;-143.37;100.00;62585.38;5049322;28;20959;-75
2022/04/16 06:34:30;;;;;;;5.40;4.10;;;;;;;-143.37;100.00;62585.38;5064333;28;20544;-76
2022/04/16 06:37:11;;;;;;;4.30;3.53;;;;;;;-143.37;100.00;62585.38;5068842;28;20932;-75
2022/04/16 06:39:47;;;;;;;5.20;4.17;;;;;;;-143.37;100.00;62585.38;5063799;28;20449;-75
2022/04/16 06:42:22;;;;;;;4.40;4.00;;;;;;;-143.37;100.00;62585.38;5065545;28;20777;-76
2022/04/16 06:44:58;;;;;;;8.67;4.37;;;;;;;-143.37;100.00;62585.38;5066764;28;20449;-76
2022/04/16 06:47:34;;;;;;;5.13;4.17;;;;;;;-143.37;100.00;62585.38;5066271;28;20434;-76
2022/04/16 06:50:10;;;;;;;6.07;4.30;;;;;;;-143.37;100.00;62585.38;5071383;28;20437;-76
2022/04/16 06:52:47;;;;;;;5.10;4.40;;;;;;;-143.37;100.00;62585.38;5068399;28;20435;-76
2022/04/16 06:55:23;;;;;;;5.53;4.40;;;;;;;-143.37;100.00;62585.38;5054060;28;20461;-76
2022/04/16 06:57:58;;;;;;;5.37;4.00;;;;;;;-143.37;100.00;62585.38;5065669;28;20449;-76
2022/04/16 07:00:34;;;;;;;4.37;3.80;;;;;;;-143.37;100.00;62585.38;5063167;28;20449;-76
2022/04/16 07:03:10;;;;;;;5.13;3.90;;;;;;;-143.37;100.00;62585.38;5065820;28;20524;-76
2022/04/16 07:05:46;;;;;;;4.30;3.57;;;;;;;-143.37;100.00;62585.38;5064231;28;20764;-76
2022/04/16 07:08:23;;;;;;;5.80;4.97;;;;;;;-143.37;100.00;62585.38;5069060;28;20440;-76
2022/04/16 07:10:59;;;;;;;5.50;4.73;;;;;;;-143.37;100.00;62585.38;5062519;28;20481;-76
2022/04/16 07:13:34;;;;;;;5.10;4.10;;;;;;;-143.37;100.00;62585.38;5068386;28;20932;-76
2022/04/16 07:16:10;;;;;;;5.50;4.70;;;;;;;-143.37;100.00;62585.38;5066670;28;20445;-76
2022/04/16 07:18:46;;;;;;;5.93;4.87;;;;;;;-143.37;100.00;62585.38;5057937;28;20832;-76
2022/04/16 07:21:22;;;;;;;5.70;4.30;;;;;;;-143.37;100.00;62585.38;5048257;28;20789;-76
2022/04/16 07:23:59;;;;;;;5.93;4.93;;;;;;;-143.37;100.00;62585.38;5061638;28;20445;-76
2022/04/16 07:26:35;;;;;;;5.27;4.50;;;;;;;-143.37;100.00;62585.38;5051214;28;20457;-76
2022/04/16 07:29:11;;;;;;;5.63;4.33;;;;;;;-143.37;100.00;62585.38;5062590;28;20441;-76
2022/04/16 07:31:47;;;;;;;5.47;4.90;;;;;;;-143.37;100.00;62585.38;5061995;28;20474;-76
2022/04/16 07:34:22;;;;;;;5.40;3.93;;;;;;;-143.37;100.00;62585.38;5062532;28;20481;-76
2022/04/16 07:37:14;;;;;;;5.77;4.53;;;;;;;-143.37;100.00;62585.38;5063437;28;21100;-76
2022/04/16 07:39:51;;;;;;;5.33;4.27;;;;;;;-143.37;100.00;62585.38;5072936;28;20459;-76
2022/04/16 07:42:27;;;;;;;5.00;4.33;;;;;;;-143.37;100.00;62585.38;5080442;28;20441;-75
2022/04/16 07:45:03;;;;;;;5.70;4.90;;;;;;;-143.37;100.00;62585.38;5061992;28;20482;-76
2022/04/16 07:47:39;;;;;;;7.10;4.53;;;;;;;-143.37;100.00;62585.38;5048901;28;20487;-76
2022/04/16 07:50:15;;;;;;;5.17;4.67;;;;;;;-143.37;100.00;62585.38;5049564;28;20486;-76
2022/04/16 07:52:51;;;;;;;6.80;4.97;;;;;;;-143.37;100.00;62585.38;5062508;28;20975;-76
2022/04/16 07:55:31;;;;;;;7.43;5.67;;;;;;;-143.37;100.00;62585.38;5048542;28;20454;-76
2022/04/16 07:58:07;;;;;;;5.23;4.33;;;;;;;-143.37;100.00;62585.38;5060572;28;20812;-76
2022/04/16 08:00:42;;;;;;;6.60;4.97;;;;;;;-143.37;100.00;62585.38;5064646;28;20446;-76
2022/04/16 08:03:18;;;;;;;5.90;4.50;;;;;;;-143.37;100.00;62585.38;5066298;28;20463;-76
2022/04/16 08:05:54;;;;;;;5.70;4.73;;;;;;;-143.37;100.00;62585.38;5049678;28;20446;-76
2022/04/16 08:08:30;;;;;;;5.67;5.13;;;;;;;-143.37;100.00;62585.38;5043819;28;20550;-76
2022/04/16 08:11:07;;;;;;;5.60;4.80;;;;;;;-143.37;100.00;62585.38;5056717;28;20459;-76
2022/04/16 08:13:43;;;;;;;5.73;5.13;;;;;;;-143.37;100.00;62585.38;5051056;28;20437;-76
2022/04/16 08:16:18;;;;;;;6.13;5.40;;;;;;;-143.37;100.00;62585.38;5065606;28;20442;-75
2022/04/16 08:18:54;;;;;;;6.20;5.00;;;;;;;-143.37;100.00;62585.38;5067500;28;20430;-75
2022/04/16 08:21:31;;;;;;;7.17;5.23;;;;;;;-143.37;100.00;62585.38;5052444;28;20441;-75
2022/04/16 08:24:22;;;;;;;9.00;6.07;;;;;;;-143.37;100.00;62585.38;5062514;28;20445;-75
2022/04/16 08:26:59;;;;;;;8.90;5.20;;;;;;;-143.37;100.00;62585.38;5066293;28;20909;-75
2022/04/16 08:29:35;;;;;;;5.80;5.20;;;;;;;-143.37;100.00;62585.38;5062405;28;20450;-75
2022/04/16 08:32:10;;;;;;;6.70;5.10;;;;;;;-143.37;100.00;62585.38;5062443;28;20505;-75
2022/04/16 08:34:46;;;;;;;8.40;5.80;;;;;;;-143.37;100.00;62585.38;5058979;28;20437;-76
2022/04/16 08:37:22;;;;;;;7.37;5.97;;;;;;;-143.37;100.00;62585.38;5046516;28;20469;-75
2022/04/16 08:39:57;;;;;;;10.20;5.73;;;;;;;-143.37;100.00;62585.38;5064330;28;20533;-75
2022/04/16 08:42:35;;;;;;;7.93;5.20;;;;;;;-143.37;100.00;62585.38;5067433;28;20437;-75
2022/04/16 08:45:12;;;;;;;7.93;6.00;;;;;;;-143.37;100.00;62585.38;5057991;28;20525;-75
2022/04/16 08:47:50;;;;;;;7.63;6.73;;;;;;;-143.37;100.00;62585.38;5063245;28;20455;-75
2022/04/16 08:50:25;;;;;;;8.80;6.90;;;;;;;-143.37;100.00;62585.38;5056542;28;20533;-75
2022/04/16 08:53:01;;;;;;;8.43;6.87;;;;;;;-143.37;100.00;62585.38;5048451;28;20815;-75
2022/04/16 08:55:38;;;;;;;10.00;7.23;;;;;;;-143.37;100.00;62585.38;5048867;28;20434;-75
2022/04/16 08:58:15;;;;;;;7.30;6.50;;;;;;;-143.37;100.00;62585.38;5046514;28;20450;-75
2022/04/16 09:00:51;;;;;;;7.97;6.60;;;;;;;-143.37;100.00;62585.38;5064995;28;20438;-75
2022/04/16 09:03:32;;;;;;;8.00;6.40;;;;;;;-143.37;100.00;62585.38;5052562;28;20773;-76
2022/04/16 09:06:08;;;;;;;8.37;7.50;;;;;;;-143.37;100.00;62585.38;5048130;28;20832;-75
2022/04/16 09:08:44;;;;;;;7.90;6.60;;;;;;;-143.37;100.00;62585.38;5061956;28;20462;-75
2022/04/16 09:11:21;;;;;;;8.00;6.83;;;;;;;-143.37;100.00;62585.38;5029999;28;20470;-75
2022/04/16 09:13:58;;;;;;;7.97;6.20;;;;;;;-143.37;100.00;62585.38;5047892;28;20936;-76
2022/04/16 09:16:33;;;;;;;8.00;6.70;;;;;;;-143.37;100.00;62585.38;5045892;28;20478;-75
2022/04/16 09:19:12;;;;;;;7.10;6.20;;;;;;;-143.37;100.00;62585.38;5052534;28;20433;-75
2022/04/16 09:21:48;;;;;;;7.80;6.37;;;;;;;-143.37;100.00;62585.38;5050488;28;20435;-75
2022/04/16 09:24:23;;;;;;;8.90;6.70;;;;;;;-143.37;100.00;62585.38;5051802;28;20437;-75
2022/04/16 09:27:46;;;;;;;8.97;7.80;;;;;;;-143.37;100.00;62585.38;5063210;28;20783;-76
2022/04/16 09:30:28;;;;;;;9.77;7.60;;;;;;;-143.37;100.00;62585.38;5049426;28;20541;-75
2022/04/16 09:33:08;;;;;;;8.37;7.40;;;;;;;-143.37;100.00;62585.38;5048657;28;20825;-75
2022/04/16 09:35:43;;;;;;;9.43;7.60;;;;;;;-143.37;100.00;62585.38;5065562;28;20453;-75
2022/04/16 09:38:19;;;;;;;8.63;7.30;;;;;;;-143.37;100.00;62585.38;5049851;28;20441;-75
2022/04/16 09:40:54;;;;;;;10.03;7.23;;;;;;;-143.37;100.00;62585.38;5051269;28;20438;-75
2022/04/16 09:43:35;;;;;;;9.03;6.63;;;;;;;-143.37;100.00;62585.38;5051888;28;20818;-76
2022/04/16 09:46:13;;;;;;;8.60;7.23;;;;;;;-143.37;100.00;62585.38;5036476;28;20956;-76
2022/04/16 09:48:49;;;;;;;8.03;6.60;;;;;;;-143.37;100.00;62585.38;5052535;28;20937;-76
2022/04/16 09:51:25;;;;;;;9.90;7.03;;;;;;;-143.37;100.00;62585.38;5049492;28;20426;-76
2022/04/16 09:54:03;;;;;;;8.93;6.97;;;;;;;-143.37;100.00;62585.38;5052256;28;20442;-76
2022/04/16 09:56:40;;;;;;;8.20;6.10;;;;;;;-143.37;100.00;62585.38;5068338;28;20529;-76
2022/04/16 09:59:17;;;;;;;7.03;5.33;;;;;;;-143.37;100.00;62585.38;5052222;28;20524;-75
2022/04/16 10:01:55;;;;;;;8.27;6.60;;;;;;;-143.37;100.00;62585.38;5050926;28;20961;-76
2022/04/16 10:04:32;;;;;;;7.13;6.20;;;;;;;-143.37;100.00;62585.38;5063979;28;20583;-76
2022/04/16 10:07:08;;;;;;;8.87;7.57;;;;;;;-143.37;100.00;62585.38;5061143;28;20449;-76
2022/04/16 10:09:45;;;;;;;9.30;7.43;;;;;;;-143.37;100.00;62585.38;5064892;28;20924;-75
2022/04/16 10:15:20;;;;;;;7.77;6.63;;;;;;;-143.37;100.00;62585.38;5064756;28;20508;-76
2022/04/16 10:17:58;;;;;;;6.83;5.17;;;;;;;-143.37;100.00;62585.38;5056878;28;20462;-76
2022/04/16 10:20:34;;;;;;;7.93;6.50;;;;;;;-143.37;100.00;62585.38;5036532;28;20438;-75
2022/04/16 10:23:09;;;;;;;7.17;5.83;;;;;;;-143.37;100.00;62585.38;5044091;28;20776;-76
2022/04/16 10:25:47;;;;;;;6.70;6.00;;;;;;;-143.37;100.00;62585.38;5043611;28;20443;-75
2022/04/16 10:28:25;;;;;;;7.87;6.30;;;;;;;-143.37;100.00;62585.38;5064043;28;20873;-75
2022/04/16 10:31:03;;;;;;;6.47;5.70;;;;;;;-143.37;100.00;62585.38;5046327;28;20445;-74
2022/04/16 10:33:40;;;;;;;6.50;5.40;;;;;;;-143.37;100.00;62585.38;5059602;28;20469;-75
2022/04/16 10:36:25;;;;;;;7.80;6.07;;;;;;;-143.37;100.00;62585.38;5062090;28;20438;-75
2022/04/16 10:39:01;;;;;;;6.77;6.07;;;;;;;-143.37;100.00;62585.38;5061203;28;20470;-75
2022/04/16 10:41:39;;;;;;;7.43;6.53;;;;;;;-143.37;100.00;62585.38;5061453;28;20812;-75
2022/04/16 10:44:15;;;;;;;8.37;6.53;;;;;;;-143.37;100.00;62585.38;5056699;28;20453;-75
2022/04/16 10:46:51;;;;;;;7.80;6.97;;;;;;;-143.37;100.00;62585.38;5040820;28;20478;-75
2022/04/16 10:49:28;;;;;;;8.73;7.33;;;;;;;-143.37;100.00;62585.38;5060137;28;20461;-75
2022/04/16 10:52:18;;;;;;;8.50;6.60;;;;;;;-143.37;100.00;62585.38;5059400;28;20473;-75
2022/04/16 10:55:01;;;;;;;7.07;6.20;;;;;;;-143.37;100.00;62585.38;5051592;28;21081;-75
2022/04/16 10:57:41;;;;;;;6.43;5.73;;;;;;;-143.37;100.00;62585.38;5063364;28;20449;-75
2022/04/16 11:00:17;;;;;;;7.47;6.30;;;;;;;-143.37;100.00;62585.38;5042522;28;20437;-75
2022/04/16 11:02:53;;;;;;;6.57;5.87;;;;;;;-143.37;100.00;62585.38;5046393;28;20992;-76
2022/04/16 11:05:36;;;;;;;6.20;5.00;;;;;;;-143.37;100.00;62585.38;5062372;28;20951;-75
2022/04/16 11:08:13;;;;;;;6.50;4.73;;;;;;;-143.37;100.00;62585.38;5040088;28;20450;-75
2022/04/16 11:10:57;;;;;;;6.40;5.80;;;;;;;-143.37;100.00;62585.38;5042750;28;20545;-76
2022/04/16 11:13:34;;;;;;;6.13;4.80;;;;;;;-143.37;100.00;62585.38;5056509;28;20976;-75
2022/04/16 11:16:10;;;;;;;5.93;5.07;;;;;;;-143.37;100.00;62585.38;5051646;28;20969;-75
2022/04/16 11:18:47;;;;;;;5.90;4.50;;;;;;;-143.37;100.00;62585.38;5057083;28;20454;-75
2022/04/16 11:21:29;;;;;;;6.17;5.50;;;;;;;-143.37;100.00;62585.38;5046746;28;20835;-76
2022/04/16 11:24:07;;;;;;;19.20;12.00;;;;;;;-143.37;100.00;62585.38;5040002;28;20427;-76
2022/04/16 11:35:38;;;;;;;5.80;4.40;;;;;;;-143.37;100.00;62585.38;5056449;28;20433;-76
2022/04/16 11:38:25;;;;;;;5.97;5.10;;;;;;;-143.37;100.00;62585.38;5066176;28;20445;-76
2022/04/16 11:41:04;;;;;;;5.93;4.57;;;;;;;-143.37;100.00;62585.38;5070442;28;20834;-76
2022/04/16 11:43:47;;;;;;;5.30;4.50;;;;;;;-143.37;100.00;62585.38;5065601;28;20446;-76
2022/04/16 11:46:22;;;;;;;5.50;5.00;;;;;;;-143.37;100.00;62585.38;5065998;28;20439;-76
2022/04/16 11:49:00;;;;;;;7.87;5.20;;;;;;;-143.37;100.00;62585.38;5050108;28;20426;-76
2022/04/16 11:51:39;;;;;;;5.57;5.00;;;;;;;-143.37;100.00;62585.38;5066462;28;20438;-76
2022/04/16 11:54:27;;;;;;;5.90;5.27;;;;;;;-143.37;100.00;62585.38;5065916;28;20944;-76
2022/04/16 11:57:02;;;;;;;6.00;4.97;;;;;;;-143.37;100.00;62585.38;5077771;28;20450;-76
2022/04/16 11:59:40;;;;;;;6.20;5.30;;;;;;;-143.37;100.00;62585.38;5064574;28;20537;-76
2022/04/16 12:02:17;;;;;;;7.27;5.87;;;;;;;-143.37;100.00;62585.38;5068210;28;20472;-76
2022/04/16 12:04:53;;;;;;;10.27;5.40;;;;;;;-143.37;100.00;62585.38;5049689;28;20482;-76
2022/04/16 12:07:31;;;;;;;11.23;5.57;;;;;;;-143.37;100.00;62585.38;5053321;28;20576;-76
2022/04/16 12:10:08;;;;;;;5.67;4.97;;;;;;;-143.37;100.00;62585.38;5059247;28;20442;-76
2022/04/16 12:12:47;;;;;;;6.13;4.90;;;;;;;-143.37;100.00;62585.38;5065094;28;20969;-76
2022/04/16 12:15:29;;;;;;;6.13;5.53;;;;;;;-143.37;100.00;62585.38;5063968;28;20787;-76
2022/04/16 12:18:10;;;;;;;5.50;4.90;;;;;;;-143.37;100.00;62585.38;5059670;28;20453;-76